Time;durP1;ratioP1;P1;durP2;ratioP2;P2;SDS_P1;SDS_P2;PMS_P1;PMS_P2;Temp;Humidity;BMP_temperature;BMP_pressure;BME280_temperature;BME280_humidity;BME280_pressure;Samples;Min_cycle;Max_cycle;Signal;HPM_P1;HPM_P2
2022/04/11 00:02:24;;;;;;;7.57;1.90;;;;;;;2.15;84.71;99621.56;8199998;28;20051;-73
2022/04/11 00:06:26;;;;;;;4.88;2.20;;;;;;;2.15;85.19;99614.75;8227274;28;20118;-73
2022/04/11 00:10:27;;;;;;;4.63;2.00;;;;;;;2.15;85.18;99609.63;8207884;28;20046;-74
2022/04/11 00:14:29;;;;;;;2.72;2.17;;;;;;;2.18;85.97;99609.75;8208108;28;20078;-73
2022/04/11 00:18:30;;;;;;;3.27;1.70;;;;;;;2.15;85.66;99609.63;8202657;28;20454;-73
2022/04/11 00:22:36;;;;;;;2.83;1.83;;;;;;;2.18;86.20;99594.38;8218572;28;20051;-73
2022/04/11 00:26:37;;;;;;;3.20;1.77;;;;;;;2.19;85.98;99591.00;8206462;28;20061;-73
2022/04/11 00:30:38;;;;;;;2.43;1.90;;;;;;;2.21;86.38;99580.78;8210470;28;20046;-73
2022/04/11 00:34:41;;;;;;;3.23;1.50;;;;;;;2.26;86.65;99575.00;8226550;28;20063;-74
2022/04/11 00:38:42;;;;;;;1.70;1.48;;;;;;;2.28;86.81;99575.91;8211175;28;20047;-73
2022/04/11 00:42:44;;;;;;;1.93;1.50;;;;;;;2.34;87.01;99565.88;8225380;28;20138;-73
2022/04/11 00:46:45;;;;;;;3.17;1.40;;;;;;;2.39;86.82;99559.19;8204735;28;20507;-74
2022/04/11 00:50:47;;;;;;;2.00;1.50;;;;;;;2.40;86.77;99558.34;8219717;28;20051;-74
2022/04/11 00:54:49;;;;;;;1.92;1.40;;;;;;;2.48;87.07;99557.72;8203714;28;20086;-74
2022/04/11 00:58:50;;;;;;;3.13;1.37;;;;;;;2.54;87.19;99555.34;8200527;28;20100;-74
2022/04/11 01:02:52;;;;;;;3.00;1.37;;;;;;;2.59;86.66;99540.97;8202826;28;20094;-74
2022/04/11 01:06:57;;;;;;;1.97;1.10;;;;;;;2.67;86.53;99537.78;8201095;28;20047;-74
2022/04/11 01:11:00;;;;;;;1.73;1.23;;;;;;;2.73;86.09;99529.44;8218531;28;20078;-73
2022/04/11 01:15:02;;;;;;;1.93;0.93;;;;;;;2.84;84.26;99525.47;8200624;28;20047;-74
2022/04/11 01:19:03;;;;;;;2.65;1.13;;;;;;;2.91;83.35;99519.69;8204393;28;20043;-74
2022/04/11 01:23:05;;;;;;;1.57;1.27;;;;;;;2.99;82.48;99518.19;8204429;28;20044;-74
2022/04/11 01:27:07;;;;;;;1.43;1.33;;;;;;;3.08;81.82;99520.16;8201870;28;20614;-74
2022/04/11 01:31:08;;;;;;;1.47;1.13;;;;;;;3.11;81.59;99519.38;8199026;28;20138;-74
2022/04/11 01:35:25;;;;;;;2.40;1.47;;;;;;;3.18;80.96;99526.41;8201017;28;20304;-74
2022/04/11 01:39:26;;;;;;;4.40;1.10;;;;;;;3.23;80.71;99529.94;8201149;28;20146;-74
2022/04/11 01:43:28;;;;;;;2.90;1.00;;;;;;;3.21;80.85;99509.38;8200359;28;20125;-74
2022/04/11 01:47:29;;;;;;;3.23;1.17;;;;;;;3.21;81.31;99511.94;8202234;28;20043;-74
2022/04/11 01:51:31;;;;;;;2.80;0.97;;;;;;;3.23;80.85;99494.94;8200385;28;20061;-74
2022/04/11 01:55:32;;;;;;;3.37;1.03;;;;;;;3.24;80.90;99494.09;8200986;28;20151;-73
2022/04/11 01:59:33;;;;;;;2.77;1.17;;;;;;;3.27;80.05;99499.31;8181544;28;20073;-74
2022/04/11 02:03:35;;;;;;;2.30;1.10;;;;;;;3.32;79.60;99499.41;8200064;28;20337;-74
2022/04/11 02:07:38;;;;;;;2.53;1.20;;;;;;;3.32;79.02;99499.41;8207887;28;20142;-74
2022/04/11 02:11:39;;;;;;;2.53;1.10;;;;;;;3.23;79.57;99497.50;8204682;28;20054;-74
2022/04/11 02:15:41;;;;;;;3.07;1.10;;;;;;;3.15;79.75;99481.00;8225873;28;20352;-74
2022/04/11 02:19:42;;;;;;;2.67;1.30;;;;;;;3.13;80.14;99489.50;8204198;28;20047;-74
2022/04/11 02:23:46;;;;;;;1.90;1.50;;;;;;;3.05;80.33;99479.03;8224392;28;20054;-73
2022/04/11 02:27:48;;;;;;;1.57;1.30;;;;;;;3.00;79.96;99488.28;8208157;28;20681;-73
2022/04/11 02:31:50;;;;;;;3.45;1.77;;;;;;;2.91;80.69;99486.38;8222444;28;20058;-73
2022/04/11 02:35:51;;;;;;;1.63;1.30;;;;;;;2.89;80.61;99485.47;8211048;28;20051;-74
2022/04/11 02:39:53;;;;;;;2.27;1.47;;;;;;;2.82;81.28;99472.41;8200980;28;20053;-73
2022/04/11 02:43:54;;;;;;;3.00;1.60;;;;;;;2.80;81.13;99489.44;8204551;28;20058;-74
2022/04/11 02:47:56;;;;;;;1.73;1.30;;;;;;;2.75;81.54;99489.31;8206285;28;20063;-73
2022/04/11 02:51:58;;;;;;;3.20;1.55;;;;;;;2.56;82.52;99482.81;8208722;28;20049;-73
2022/04/11 02:56:00;;;;;;;1.93;1.30;;;;;;;2.57;82.78;99479.41;8224746;28;20138;-73
2022/04/11 03:00:03;;;;;;;2.57;1.20;;;;;;;2.55;82.73;99473.38;8196262;28;20043;-74
2022/04/11 03:04:05;;;;;;;1.13;1.03;;;;;;;2.43;82.77;99476.44;8186165;28;20059;-73
2022/04/11 03:08:06;;;;;;;3.63;1.63;;;;;;;2.36;83.52;99461.72;8214223;28;20043;-74
2022/04/11 03:12:09;;;;;;;1.55;1.20;;;;;;;2.27;83.88;99458.03;8204058;28;20130;-73
2022/04/11 03:16:11;;;;;;;1.43;1.13;;;;;;;2.25;84.17;99460.53;8200749;28;20554;-74
2022/04/11 03:20:13;;;;;;;4.40;1.30;;;;;;;2.18;84.49;99460.31;8197636;28;20138;-73
2022/04/11 03:24:15;;;;;;;3.35;1.48;;;;;;;2.15;84.71;99462.75;8203712;28;20051;-73
2022/04/11 03:28:16;;;;;;;2.33;1.23;;;;;;;2.13;84.79;99466.16;8214035;28;20039;-73
2022/04/11 03:32:18;;;;;;;1.83;1.10;;;;;;;1.98;85.21;99467.41;8216720;28;20113;-74
2022/04/11 03:36:19;;;;;;;2.90;1.43;;;;;;;1.89;85.09;99461.97;8212556;28;20102;-73
2022/04/11 03:40:21;;;;;;;4.43;1.30;;;;;;;1.86;85.48;99455.09;8217030;28;20056;-73
2022/04/11 03:44:24;;;;;;;2.60;1.67;;;;;;;1.87;85.24;99454.25;8213821;28;20043;-74
2022/04/11 03:48:26;;;;;;;2.93;1.37;;;;;;;1.83;84.98;99449.88;8202323;28;20074;-74
2022/04/11 03:52:28;;;;;;;1.55;1.30;;;;;;;1.75;85.36;99441.94;8204039;28;20043;-73
2022/04/11 03:56:29;;;;;;;2.67;1.60;;;;;;;1.65;85.40;99449.28;8212797;28;20051;-73
2022/04/11 04:00:31;;;;;;;4.87;1.60;;;;;;;1.66;86.07;99445.91;8205313;28;20070;-73
2022/04/11 04:04:32;;;;;;;2.37;1.33;;;;;;;1.67;86.19;99448.53;8202538;28;20089;-74
2022/04/11 04:08:34;;;;;;;2.30;1.43;;;;;;;1.64;85.89;99440.75;8199767;28;20039;-74
2022/04/11 04:12:35;;;;;;;1.47;1.30;;;;;;;1.61;86.32;99432.06;8203266;28;20134;-74
2022/04/11 04:16:37;;;;;;;3.13;1.27;;;;;;;1.58;86.31;99432.84;8209303;28;20054;-73
2022/04/11 04:20:40;;;;;;;4.15;1.40;;;;;;;1.59;86.18;99423.50;8210503;28;20046;-73
2022/04/11 04:24:41;;;;;;;4.65;1.58;;;;;;;1.59;85.70;99426.91;8200486;28;20085;-73
2022/04/11 04:28:43;;;;;;;1.77;1.20;;;;;;;1.51;86.18;99423.25;8198188;28;20146;-73
2022/04/11 04:32:44;;;;;;;2.17;1.23;;;;;;;1.51;86.27;99426.69;8213014;28;20078;-73
2022/04/11 04:36:45;;;;;;;3.40;1.40;;;;;;;1.52;86.78;99425.00;8212259;28;20055;-73
2022/04/11 04:40:47;;;;;;;2.97;1.30;;;;;;;1.52;87.13;99425.88;8211437;28;20491;-73
2022/04/11 04:44:49;;;;;;;4.90;1.60;;;;;;;1.52;86.33;99425.00;8213767;28;20446;-73
2022/04/11 04:48:50;;;;;;;2.60;1.53;;;;;;;1.54;86.67;99414.81;8207876;28;20051;-74
2022/04/11 04:52:52;;;;;;;5.13;1.60;;;;;;;1.61;86.88;99421.84;8216536;28;20668;-74
2022/04/11 04:56:53;;;;;;;1.60;1.50;;;;;;;1.65;86.42;99416.03;8212087;28;20142;-74
2022/04/11 05:00:54;;;;;;;2.10;1.20;;;;;;;1.65;86.16;99410.91;8202641;28;20067;-74
2022/04/11 05:05:02;;;;;;;1.42;1.30;;;;;;;1.64;86.11;99410.03;8212611;28;20404;-74
2022/04/11 05:09:04;;;;;;;1.80;1.40;;;;;;;1.67;86.25;99419.50;8224856;28;20057;-74
2022/04/11 05:13:05;;;;;;;2.60;1.17;;;;;;;1.69;86.64;99421.28;8207877;28;20055;-74
2022/04/11 05:17:08;;;;;;;1.83;1.37;;;;;;;1.72;86.98;99417.94;8213805;28;20039;-74
2022/04/11 05:21:10;;;;;;;2.13;1.30;;;;;;;1.76;86.82;99425.75;8207878;28;20053;-74
2022/04/11 05:25:11;;;;;;;1.40;1.30;;;;;;;1.85;87.11;99430.31;8204320;28;20140;-74
2022/04/11 05:29:13;;;;;;;1.10;1.00;;;;;;;1.81;86.98;99429.34;8203935;28;20442;-73
2022/04/11 05:33:15;;;;;;;1.90;1.17;;;;;;;1.92;87.17;99432.22;8206055;28;20137;-74
2022/04/11 05:37:16;;;;;;;1.38;1.13;;;;;;;2.03;86.84;99430.88;8216775;28;20818;-74
2022/04/11 05:41:18;;;;;;;1.80;1.30;;;;;;;2.22;86.99;99431.41;8206042;28;20449;-74
2022/04/11 05:45:19;;;;;;;2.60;1.30;;;;;;;2.40;86.71;99424.25;8203510;28;20042;-73
2022/04/11 05:49:22;;;;;;;1.10;1.00;;;;;;;2.58;86.78;99423.91;8215709;28;20514;-73
2022/04/11 05:53:23;;;;;;;3.88;1.10;;;;;;;2.84;86.09;99420.34;8200004;28;20055;-73
2022/04/11 05:57:25;;;;;;;2.87;1.30;;;;;;;3.16;84.60;99408.34;8193312;28;20710;-73
2022/04/11 06:01:26;;;;;;;4.07;1.10;;;;;;;4.07;83.00;99412.22;8187639;28;20055;-73
2022/04/11 06:05:28;;;;;;;2.23;1.43;;;;;;;5.22;77.92;99407.63;8194290;28;20043;-74
2022/04/11 06:09:30;;;;;;;2.43;1.30;;;;;;;5.78;74.55;99414.50;8212368;28;20043;-74
2022/04/11 06:13:31;;;;;;;1.40;1.20;;;;;;;6.12;71.13;99411.63;8195154;28;20042;-75
2022/04/11 06:17:33;;;;;;;6.53;1.63;;;;;;;6.41;68.83;99411.97;8185532;28;20105;-75
2022/04/11 06:21:35;;;;;;;2.67;0.97;;;;;;;6.55;66.98;99412.16;8191462;28;20047;-75
2022/04/11 06:25:36;;;;;;;2.33;1.20;;;;;;;6.76;65.93;99406.38;8177199;28;20039;-76
2022/04/11 06:29:38;;;;;;;5.38;1.40;;;;;;;7.24;64.42;99408.59;8188146;28;20043;-75
2022/04/11 06:33:40;;;;;;;1.83;0.97;;;;;;;7.78;62.37;99409.88;8184759;28;20375;-75
2022/04/11 06:37:41;;;;;;;6.57;1.10;;;;;;;8.23;61.05;99406.69;8190074;28;20143;-74
2022/04/11 06:41:43;;;;;;;2.65;1.08;;;;;;;8.65;58.64;99411.25;8206800;28;20043;-73
2022/04/11 06:45:44;;;;;;;0.90;0.65;;;;;;;8.97;57.52;99416.50;8193917;28;20184;-74
2022/04/11 06:49:45;;;;;;;1.15;1.02;;;;;;;9.11;57.75;99416.53;8187378;28;20102;-74
2022/04/11 06:53:47;;;;;;;2.80;1.30;;;;;;;9.24;56.75;99417.44;8188164;28;20061;-73
2022/04/11 06:57:48;;;;;;;3.22;0.95;;;;;;;9.34;56.25;99419.19;8187925;28;20469;-76
2022/04/11 07:01:53;;;;;;;3.75;0.90;;;;;;;9.44;55.67;99420.91;8169549;28;20059;-76
2022/04/11 07:05:55;;;;;;;3.10;1.00;;;;;;;9.77;55.68;99421.75;8186582;28;20054;-72
2022/04/11 07:09:58;;;;;;;2.00;0.98;;;;;;;9.98;54.98;99420.00;8185539;28;20061;-73
2022/04/11 07:14:00;;;;;;;;;;;;;;;10.09;53.54;99407.03;8189731;28;20416;-74
2022/04/11 07:18:01;;;;;;;3.33;0.88;;;;;;;10.23;52.73;99401.81;8187038;28;20267;-73
2022/04/11 07:22:03;;;;;;;1.83;0.90;;;;;;;10.35;52.86;99388.81;8188841;28;20085;-75
2022/04/11 07:26:05;;;;;;;1.08;0.75;;;;;;;10.47;51.58;99387.91;8189379;28;20149;-73
2022/04/11 07:30:07;;;;;;;2.17;1.08;;;;;;;10.70;51.27;99380.88;8186698;28;20078;-74
2022/04/11 07:34:08;;;;;;;3.00;0.70;;;;;;;10.92;50.70;99383.34;8189284;28;20051;-73
2022/04/11 07:38:10;;;;;;;1.20;0.80;;;;;;;11.17;49.56;99372.78;8186240;28;20478;-74
2022/04/11 07:42:11;;;;;;;1.52;0.93;;;;;;;11.48;49.09;99378.59;8194965;28;20051;-74
2022/04/11 07:46:13;;;;;;;1.40;0.70;;;;;;;11.85;48.26;99375.72;8188110;28;20083;-73
2022/04/11 07:50:15;;;;;;;2.75;0.65;;;;;;;11.92;46.98;99382.59;8190047;28;20043;-73
2022/04/11 07:54:16;;;;;;;0.73;0.73;;;;;;;12.05;47.35;99380.72;8192263;28;20051;-73
2022/04/11 07:58:19;;;;;;;1.23;0.70;;;;;;;12.17;46.69;99380.56;8191858;28;20050;-73
2022/04/11 08:02:29;;;;;;;1.15;0.75;;;;;;;12.40;46.06;99377.72;8195797;28;20081;-74
2022/04/11 08:06:30;;;;;;;1.00;0.70;;;;;;;12.46;45.11;99367.22;8202346;28;20053;-73
2022/04/11 08:10:33;;;;;;;1.43;0.77;;;;;;;12.69;44.78;99359.97;8197381;28;20086;-73
2022/04/11 08:14:35;;;;;;;0.88;0.63;;;;;;;12.90;44.89;99357.94;8197364;28;20096;-72
2022/04/11 08:18:36;;;;;;;2.25;0.60;;;;;;;13.27;44.50;99366.09;8191652;28;20056;-73
2022/04/11 08:22:38;;;;;;;1.77;0.70;;;;;;;13.45;42.92;99357.13;8192240;28;20047;-72
2022/04/11 08:26:39;;;;;;;1.20;0.73;;;;;;;13.52;42.81;99367.44;8193454;28;20134;-72
2022/04/11 08:30:41;;;;;;;3.25;0.47;;;;;;;13.68;42.01;99344.56;8199168;28;20114;-73
2022/04/11 08:34:43;;;;;;;1.02;0.70;;;;;;;13.97;42.52;99345.75;8198839;28;20051;-72
2022/04/11 08:38:44;;;;;;;1.63;0.60;;;;;;;14.19;41.17;99352.31;8191569;28;20054;-73
2022/04/11 08:42:51;;;;;;;2.97;0.45;;;;;;;14.07;39.88;99342.97;8191890;28;21492;-73
2022/04/11 08:46:59;;;;;;;1.08;0.73;;;;;;;14.07;40.50;99352.53;8187144;28;20916;-73
2022/04/11 08:51:01;;;;;;;0.80;0.70;;;;;;;14.09;40.13;99348.16;8192634;28;20127;-73
2022/04/11 08:55:04;;;;;;;2.10;0.68;;;;;;;14.20;39.90;99354.91;8192063;28;20134;-75
2022/04/11 08:59:06;;;;;;;2.78;0.50;;;;;;;14.39;39.88;99357.13;8195783;28;20039;-75
2022/04/11 09:03:08;;;;;;;2.05;0.60;;;;;;;14.37;40.38;99353.69;8197099;28;20466;-75
2022/04/11 09:07:09;;;;;;;1.35;0.70;;;;;;;14.30;40.24;99347.72;8209855;28;20074;-75
2022/04/11 09:11:11;;;;;;;0.70;0.70;;;;;;;14.23;40.23;99340.06;8198237;28;20074;-75
2022/04/11 09:15:12;;;;;;;1.20;0.60;;;;;;;14.36;40.81;99351.94;8198961;28;20078;-74
2022/04/11 09:19:23;;;;;;;1.77;0.73;;;;;;;14.64;40.82;99344.44;8197526;28;20054;-74
2022/04/11 09:23:45;;;;;;;1.98;1.55;;;;;;;14.96;40.31;99336.75;8197450;28;20059;-74
2022/04/11 09:28:02;;;;;;;2.33;0.77;;;;;;;14.96;39.52;99328.03;8193319;28;20070;-74
2022/04/11 09:32:04;;;;;;;2.67;0.70;;;;;;;14.95;40.03;99318.47;8195981;28;20154;-74
2022/04/11 09:36:06;;;;;;;1.55;0.50;;;;;;;15.05;37.32;99333.03;8201097;28;20055;-74
2022/04/11 09:40:08;;;;;;;0.60;0.50;;;;;;;15.14;38.00;99330.22;8196394;28;20047;-74
2022/04/11 09:44:32;;;;;;;1.90;0.43;;;;;;;15.34;37.64;99330.59;8202630;28;20051;-74
2022/04/11 09:48:37;;;;;;;1.00;0.50;;;;;;;15.51;37.01;99318.84;8196969;28;20157;-72
2022/04/11 09:52:38;;;;;;;0.75;0.45;;;;;;;15.62;36.85;99314.25;8197744;28;20047;-74
2022/04/11 09:56:41;;;;;;;1.02;0.40;;;;;;;15.61;36.25;99320.34;8197100;28;20483;-73
2022/04/11 10:00:42;;;;;;;1.50;0.60;;;;;;;15.69;35.94;99313.19;8209696;28;21506;-74
2022/04/11 10:04:46;;;;;;;0.83;0.50;;;;;;;15.70;36.25;99301.81;8196511;28;20051;-72
2022/04/11 10:08:48;;;;;;;1.58;0.43;;;;;;;15.86;36.84;99294.41;8215016;28;20301;-72
2022/04/11 10:12:53;;;;;;;0.73;0.45;;;;;;;15.99;37.13;99301.03;8197075;28;20082;-74
2022/04/11 10:17:00;;;;;;;1.35;0.40;;;;;;;16.27;36.73;99299.31;8195825;28;20043;-73
2022/04/11 10:21:06;;;;;;;3.63;0.50;;;;;;;16.47;35.69;99293.50;8200953;28;20114;-74
2022/04/11 10:25:29;;;;;;;0.60;0.50;;;;;;;16.51;34.97;99287.25;8209878;28;20061;-73
2022/04/11 10:29:38;;;;;;;1.90;0.40;;;;;;;16.68;35.71;99278.03;8197298;28;20089;-72
2022/04/11 10:33:50;;;;;;;2.78;0.50;;;;;;;16.79;34.08;99273.34;8199702;28;20055;-74
2022/04/11 10:37:55;;;;;;;1.30;0.47;;;;;;;16.79;34.64;99255.84;8203480;28;20047;-72
2022/04/11 10:41:56;;;;;;;0.60;0.50;;;;;;;16.88;34.27;99258.19;8203575;28;20417;-74
2022/04/11 10:45:58;;;;;;;2.17;0.50;;;;;;;16.93;34.59;99242.28;8202150;28;20055;-73
2022/04/11 10:50:01;;;;;;;0.60;0.50;;;;;;;17.12;35.17;99238.13;8199747;28;20058;-75
2022/04/11 10:54:17;;;;;;;0.68;0.45;;;;;;;17.16;32.66;99224.00;8201115;28;20046;-74
2022/04/11 10:58:47;;;;;;;1.95;0.45;;;;;;;17.27;32.43;99223.66;8199995;28;20050;-73
2022/04/11 11:02:52;;;;;;;0.63;0.40;;;;;;;17.22;32.92;99217.69;8196940;28;20888;-73
2022/04/11 11:07:26;;;;;;;3.80;0.45;;;;;;;17.52;33.22;99215.75;8200989;28;20047;-72
2022/04/11 11:11:28;;;;;;;1.17;0.40;;;;;;;17.52;32.51;99203.50;8203297;28;20183;-73
2022/04/11 11:15:30;;;;;;;1.10;0.57;;;;;;;17.53;33.44;99192.09;8214864;28;20046;-73
2022/04/11 11:20:00;;;;;;;0.35;0.30;;;;;;;17.70;32.73;99194.13;8196109;28;20074;-72
2022/04/11 11:24:02;;;;;;;0.80;0.43;;;;;;;17.77;31.85;99203.53;8203219;28;20066;-74
2022/04/11 11:28:05;;;;;;;1.75;0.30;;;;;;;17.78;31.46;99189.47;8204935;28;20062;-73
2022/04/11 11:32:08;;;;;;;1.50;0.30;;;;;;;18.01;30.07;99178.09;8194892;28;20113;-73
2022/04/11 11:36:10;;;;;;;0.75;0.32;;;;;;;18.15;31.22;99177.56;8201344;28;20055;-73
2022/04/11 11:40:12;;;;;;;0.55;0.20;;;;;;;18.29;29.06;99177.88;8196095;28;20063;-73
2022/04/11 11:44:14;;;;;;;1.30;0.30;;;;;;;18.46;29.93;99171.94;8198965;28;20471;-73
2022/04/11 11:48:33;;;;;;;4.88;0.40;;;;;;;18.69;29.58;99165.81;8202003;28;20050;-73
2022/04/11 11:52:37;;;;;;;1.25;0.20;;;;;;;18.95;29.89;99168.19;8206927;28;20075;-73
2022/04/11 11:56:46;;;;;;;1.23;0.40;;;;;;;18.91;29.24;99158.75;8213537;28;20066;-74
2022/04/11 12:00:49;;;;;;;0.50;0.30;;;;;;;19.04;29.46;99160.84;8193520;28;20055;-75
2022/04/11 12:04:51;;;;;;;0.50;0.30;;;;;;;19.06;28.37;99151.97;8187140;28;20460;-73
2022/04/11 12:09:01;;;;;;;1.52;0.40;;;;;;;18.89;28.76;99139.53;8186142;28;20043;-73
2022/04/11 12:13:02;;;;;;;0.52;0.40;;;;;;;19.07;29.18;99123.88;8198977;28;20154;-73
2022/04/11 12:17:04;;;;;;;0.88;0.40;;;;;;;19.30;28.95;99128.97;8196854;28;20484;-72
2022/04/11 12:21:12;;;;;;;0.50;0.40;;;;;;;19.34;27.83;99120.03;8198262;28;20538;-72
2022/04/11 12:25:25;;;;;;;1.48;0.40;;;;;;;19.35;28.57;99110.34;8206528;28;20855;-72
2022/04/11 12:29:27;;;;;;;0.77;0.20;;;;;;;19.32;27.71;99114.81;8196944;28;20051;-72
2022/04/11 12:33:29;;;;;;;;;;;;;;;19.37;26.99;99103.22;8185183;28;20138;-72
2022/04/11 12:37:45;;;;;;;0.73;0.20;;;;;;;19.50;27.28;99099.97;8196311;28;20042;-72
2022/04/11 12:41:49;;;;;;;0.52;0.30;;;;;;;19.64;27.16;99096.75;8192487;28;20039;-72
2022/04/11 12:46:06;;;;;;;0.38;0.28;;;;;;;19.75;25.42;99091.84;8189070;28;20078;-72
2022/04/11 12:50:21;;;;;;;1.10;0.28;;;;;;;19.83;26.58;99075.69;8199626;28;20067;-72
2022/04/11 12:54:22;;;;;;;1.25;0.32;;;;;;;19.88;26.35;99073.66;8208802;28;20114;-73
2022/04/11 12:58:24;;;;;;;0.28;0.28;;;;;;;19.88;24.71;99086.84;8203943;28;20509;-72
2022/04/11 13:02:26;;;;;;;0.30;0.20;;;;;;;20.03;25.59;99074.72;8205245;28;20137;-72
2022/04/11 13:06:28;;;;;;;1.50;0.40;;;;;;;20.15;26.07;99071.50;8205002;28;20415;-71
2022/04/11 13:10:32;;;;;;;1.48;0.30;;;;;;;20.04;23.71;99069.38;8202308;28;20034;-73
2022/04/11 13:14:35;;;;;;;2.83;0.20;;;;;;;20.00;24.69;99064.34;8207302;28;20054;-72
2022/04/11 13:18:36;;;;;;;0.15;0.13;;;;;;;20.00;25.41;99045.88;8201459;28;20051;-73
2022/04/11 13:22:38;;;;;;;0.47;0.25;;;;;;;20.21;26.39;99045.69;8205181;28;20074;-72
2022/04/11 13:26:41;;;;;;;0.20;0.20;;;;;;;20.29;27.31;99028.63;8188347;28;20074;-71
2022/04/11 13:30:42;;;;;;;;;;;;;;;20.27;26.47;99031.34;8205576;28;20043;-72
2022/04/11 13:34:44;;;;;;;0.37;0.30;;;;;;;20.29;27.48;99021.59;8206483;28;19976;-72
2022/04/11 13:38:45;;;;;;;1.00;0.47;;;;;;;20.40;27.69;99005.22;8207922;28;20058;-71
2022/04/11 13:42:47;;;;;;;0.25;0.20;;;;;;;20.51;26.46;99008.22;8211571;28;20055;-72
2022/04/11 13:47:10;;;;;;;0.97;0.20;;;;;;;20.67;26.83;99001.22;8197702;28;20073;-72
2022/04/11 13:51:13;;;;;;;0.90;0.30;;;;;;;20.65;26.36;98994.31;8204462;28;20043;-72
2022/04/11 13:55:15;;;;;;;2.67;0.30;;;;;;;20.68;26.27;98991.50;8213372;28;20046;-72
2022/04/11 13:59:20;;;;;;;1.05;0.38;;;;;;;20.70;26.26;98984.38;8204695;28;20049;-72
2022/04/11 14:03:22;;;;;;;0.75;0.40;;;;;;;20.75;26.31;98974.41;8214416;28;20098;-73
2022/04/11 14:07:23;;;;;;;0.95;0.30;;;;;;;20.61;25.63;98976.91;8192260;28;20182;-72
2022/04/11 14:11:25;;;;;;;0.85;0.20;;;;;;;20.66;25.88;98972.28;8195021;28;20046;-71
2022/04/11 14:15:26;;;;;;;1.38;0.35;;;;;;;20.74;25.78;98963.00;8201869;28;20150;-71
2022/04/11 14:19:28;;;;;;;0.20;0.20;;;;;;;20.75;26.60;98955.94;8194943;28;20036;-72
2022/04/11 14:23:35;;;;;;;0.60;0.20;;;;;;;20.93;25.39;98948.84;8208351;28;20133;-72
2022/04/11 14:27:37;;;;;;;0.22;0.20;;;;;;;20.93;25.75;98939.13;8205012;28;20431;-72
2022/04/11 14:31:48;;;;;;;0.40;0.20;;;;;;;20.91;25.58;98943.63;8205543;28;20086;-72
2022/04/11 14:35:49;;;;;;;0.30;0.22;;;;;;;20.95;25.42;98937.25;8204726;28;20720;-71
2022/04/11 14:39:51;;;;;;;0.68;0.22;;;;;;;20.95;25.72;98925.84;8195711;28;20051;-71
2022/04/11 14:43:54;;;;;;;0.43;0.20;;;;;;;20.99;25.41;98930.00;8199768;28;20043;-72
2022/04/11 14:47:56;;;;;;;0.47;0.20;;;;;;;20.94;25.29;98929.41;8195665;28;20554;-71
2022/04/11 14:51:58;;;;;;;2.15;0.30;;;;;;;20.80;24.92;98917.81;8195260;28;20049;-71
2022/04/11 14:56:00;;;;;;;0.90;0.50;;;;;;;20.87;25.65;98914.88;8201943;28;20042;-71
2022/04/11 15:00:02;;;;;;;1.83;0.40;;;;;;;20.88;25.74;98911.28;8193626;28;20038;-71
2022/04/11 15:04:04;;;;;;;1.33;0.30;;;;;;;20.85;25.43;98900.91;8193419;28;20087;-71
2022/04/11 15:08:07;;;;;;;1.17;0.20;;;;;;;20.85;25.91;98901.75;8194535;28;20097;-71
2022/04/11 15:12:09;;;;;;;0.32;0.20;;;;;;;20.83;25.69;98882.50;8196378;28;20897;-71
2022/04/11 15:16:11;;;;;;;0.30;0.17;;;;;;;20.79;25.19;98880.94;8190264;28;20360;-72
2022/04/11 15:20:12;;;;;;;1.10;0.30;;;;;;;20.96;25.55;98891.44;8199867;28;20694;-72
2022/04/11 15:24:14;;;;;;;1.38;0.52;;;;;;;21.06;25.81;98883.88;8195500;28;20519;-72
2022/04/11 15:28:17;;;;;;;0.57;0.30;;;;;;;21.22;25.68;98887.38;8189172;28;20098;-72
2022/04/11 15:32:18;;;;;;;1.00;0.30;;;;;;;21.25;24.90;98887.25;8182738;28;20055;-72
2022/04/11 15:36:20;;;;;;;0.57;0.30;;;;;;;21.29;25.64;98887.91;8185967;28;20079;-73
2022/04/11 15:40:22;;;;;;;0.20;0.17;;;;;;;21.34;25.76;98885.84;8168435;28;20145;-73
2022/04/11 15:44:23;;;;;;;0.82;0.20;;;;;;;21.37;26.16;98888.34;8178973;28;20043;-73
2022/04/11 15:48:25;;;;;;;3.45;0.20;;;;;;;21.47;25.56;98881.59;8185329;28;20073;-72
2022/04/11 15:52:26;;;;;;;0.73;0.28;;;;;;;21.42;24.97;98887.13;8186214;28;20058;-72
2022/04/11 15:56:28;;;;;;;0.35;0.30;;;;;;;21.37;25.12;98880.44;8186836;28;20223;-72
2022/04/11 16:00:29;;;;;;;0.77;0.35;;;;;;;21.47;24.88;98880.75;8189382;28;20520;-72
2022/04/11 16:04:31;;;;;;;1.13;0.35;;;;;;;21.60;24.88;98887.88;8193677;28;20058;-72
2022/04/11 16:08:32;;;;;;;0.43;0.32;;;;;;;21.52;25.21;98883.97;8194725;28;20039;-73
2022/04/11 16:12:34;;;;;;;2.08;0.25;;;;;;;21.18;24.80;98882.34;8202470;28;20046;-72
2022/04/11 16:16:35;;;;;;;0.70;0.30;;;;;;;21.06;25.25;98879.47;8195431;28;20051;-72
2022/04/11 16:20:37;;;;;;;0.38;0.28;;;;;;;21.01;25.55;98878.88;8197364;28;20043;-72
2022/04/11 16:24:38;;;;;;;0.43;0.30;;;;;;;21.15;25.57;98880.72;8216232;28;20074;-73
2022/04/11 16:28:44;;;;;;;1.25;0.52;;;;;;;21.20;25.23;98868.13;8203302;28;20043;-72
2022/04/11 16:32:45;;;;;;;0.35;0.30;;;;;;;21.15;26.14;98869.31;8215901;28;20429;-72
2022/04/11 16:36:47;;;;;;;2.15;0.32;;;;;;;20.83;25.62;98868.47;8214228;28;20086;-72
2022/04/11 16:40:48;;;;;;;0.52;0.30;;;;;;;20.48;26.75;98858.88;8207592;28;20071;-72
2022/04/11 16:44:50;;;;;;;2.47;0.40;;;;;;;20.31;27.23;98850.13;8204758;28;20085;-71
2022/04/11 16:48:52;;;;;;;0.75;0.40;;;;;;;19.80;27.52;98852.72;8191681;28;20051;-72
2022/04/11 16:52:53;;;;;;;0.50;0.25;;;;;;;19.28;28.98;98865.78;8199356;28;20081;-71
2022/04/11 16:56:56;;;;;;;0.45;0.30;;;;;;;18.83;29.25;98863.53;8192999;28;20493;-72
2022/04/11 17:01:01;;;;;;;3.33;0.40;;;;;;;18.55;29.17;98865.72;8191645;28;21577;-72
2022/04/11 17:05:04;;;;;;;0.30;0.30;;;;;;;18.18;29.85;98858.63;8193701;28;20090;-72
2022/04/11 17:09:05;;;;;;;0.65;0.30;;;;;;;17.87;30.48;98853.81;8212168;28;20043;-72
2022/04/11 17:13:07;;;;;;;0.73;0.35;;;;;;;17.69;30.58;98858.06;8199631;28;20130;-72
2022/04/11 17:21:28;;;;;;;0.70;0.65;;;;;;;17.35;33.67;98863.81;8197060;28;20057;-72
2022/04/11 17:25:30;;;;;;;0.67;0.40;;;;;;;17.16;33.08;98871.56;8204681;28;20043;-72
2022/04/11 17:29:31;;;;;;;0.80;0.50;;;;;;;16.96;34.43;98867.09;8213550;28;20046;-72
2022/04/11 17:33:33;;;;;;;1.60;0.40;;;;;;;16.76;33.42;98870.50;8203387;28;20666;-71
2022/04/11 17:37:34;;;;;;;0.83;0.20;;;;;;;16.63;32.74;98869.19;8205838;28;20085;-72
2022/04/11 17:41:36;;;;;;;1.17;0.20;;;;;;;16.53;34.05;98875.72;8203684;28;20363;-72
2022/04/11 17:45:38;;;;;;;0.55;0.30;;;;;;;16.40;33.62;98877.06;8200622;28;20058;-71
2022/04/11 17:49:40;;;;;;;;;;;;;;;16.18;34.35;98875.22;8209860;28;20042;-72
2022/04/11 17:53:42;;;;;;;4.63;0.40;;;;;;;16.07;34.94;98889.59;8206287;28;20069;-71
2022/04/11 17:57:43;;;;;;;0.40;0.28;;;;;;;15.91;35.36;98889.25;8196373;28;20042;-71
2022/04/11 18:01:44;;;;;;;0.67;0.50;;;;;;;15.76;34.55;98892.38;8194322;28;20049;-73
2022/04/11 18:05:47;;;;;;;0.77;0.73;;;;;;;15.64;36.42;98905.00;8196815;28;20078;-73
2022/04/11 18:09:48;;;;;;;5.35;2.97;;;;;;;15.48;36.63;98903.75;8197419;28;20078;-73
2022/04/11 18:13:50;;;;;;;7.10;3.83;;;;;;;15.31;36.19;98895.56;8181915;28;20042;-72
2022/04/11 18:17:51;;;;;;;6.13;3.93;;;;;;;15.17;37.47;98898.59;8197337;28;20083;-72
2022/04/11 18:21:53;;;;;;;4.25;1.52;;;;;;;14.98;38.09;98905.31;8196848;28;20569;-72
2022/04/11 18:25:55;;;;;;;2.38;1.35;;;;;;;14.82;38.85;98912.72;8197252;28;20038;-73
2022/04/11 18:34:17;;;;;;;1.88;1.13;;;;;;;14.48;39.58;98905.84;8196479;28;20089;-72
2022/04/11 18:38:18;;;;;;;1.75;1.00;;;;;;;14.28;41.21;98917.72;8198814;28;20761;-72
2022/04/11 18:42:20;;;;;;;3.93;0.87;;;;;;;14.02;40.51;98926.25;8194429;28;20118;-72
2022/04/11 18:46:22;;;;;;;1.83;0.70;;;;;;;13.76;40.87;98927.75;8189340;28;20062;-72
2022/04/11 18:50:24;;;;;;;1.25;0.70;;;;;;;13.50;41.87;98924.94;8198582;28;20471;-73
2022/04/11 18:54:25;;;;;;;0.80;0.80;;;;;;;13.22;43.43;98930.75;8206801;28;20051;-73
2022/04/11 18:58:27;;;;;;;3.80;0.80;;;;;;;13.00;45.67;98939.91;8203822;28;20047;-71
2022/04/11 19:02:28;;;;;;;2.83;0.95;;;;;;;12.80;46.88;98944.69;8200082;28;20094;-72
2022/04/11 19:06:31;;;;;;;2.53;1.10;;;;;;;12.59;46.51;98944.25;8193100;28;20051;-73
2022/04/11 19:10:33;;;;;;;1.20;1.00;;;;;;;12.40;47.79;98946.34;8194213;28;20050;-72
2022/04/11 19:14:34;;;;;;;2.33;1.60;;;;;;;12.25;46.45;98948.38;8202943;28;20074;-72
2022/04/11 19:18:36;;;;;;;3.33;1.70;;;;;;;12.19;47.52;98957.13;8195647;28;20328;-72